createdAt,value
2019-05-23T05:52:26.403Z,13.11
2019-05-23T05:53:26.385Z,13.07
2019-05-23T05:54:26.383Z,13.15
2019-05-23T05:55:26.361Z,13.18
2019-05-23T05:56:26.349Z,13.20
2019-05-23T05:57:26.339Z,13.32
2019-05-23T05:58:26.330Z,13.37
2019-05-23T05:59:26.319Z,13.49
2019-05-23T06:00:26.319Z,13.44
2019-05-23T06:01:33.816Z,13.47
2019-05-23T06:02:27.287Z,13.54
2019-05-23T06:03:26.275Z,13.55
2019-05-23T06:04:26.263Z,13.47
2019-05-23T06:05:26.260Z,13.47
2019-05-23T06:06:26.238Z,13.41
2019-05-23T06:07:26.226Z,13.51
2019-05-23T06:08:26.218Z,13.62
2019-05-23T06:09:26.205Z,13.71
2019-05-23T06:10:26.207Z,13.79
2019-05-23T06:11:26.181Z,13.89
2019-05-23T06:12:26.171Z,13.92
2019-05-23T06:13:26.158Z,14.02
2019-05-23T06:14:26.149Z,14.28
2019-05-23T06:15:26.146Z,14.31
2019-05-23T06:16:26.127Z,14.38
2019-05-23T06:17:26.240Z,14.53
2019-05-23T06:18:26.106Z,14.61
2019-05-23T06:19:26.106Z,14.71
2019-05-23T06:20:26.102Z,14.65
2019-05-23T06:21:26.073Z,14.78
2019-05-23T06:22:26.061Z,14.86
2019-05-23T06:23:26.052Z,15.01
2019-05-23T06:24:42.091Z,14.94
2019-05-23T06:25:27.036Z,15.01
2019-05-23T06:26:26.059Z,14.93
2019-05-23T06:27:26.007Z,15.01
2019-05-23T06:28:26.000Z,15.08
2019-05-23T06:29:25.982Z,15.19
2019-05-23T06:30:25.979Z,15.13
2019-05-23T06:31:25.960Z,15.36
2019-05-23T06:32:25.950Z,15.39
2019-05-23T06:33:25.938Z,15.33
2019-05-23T06:34:25.927Z,15.49
2019-05-23T06:35:25.925Z,15.45
2019-05-23T06:36:25.903Z,15.43
2019-05-23T06:37:25.912Z,15.56
2019-05-23T06:38:25.903Z,15.61
2019-05-23T06:39:25.870Z,15.67
2019-05-23T06:40:25.868Z,15.60
2019-05-23T06:41:25.867Z,15.74
2019-05-23T06:42:25.840Z,15.72
2019-05-23T06:43:26.125Z,15.85
2019-05-23T06:44:25.835Z,15.92
2019-05-23T06:45:25.805Z,15.99
2019-05-23T06:46:25.800Z,15.99
2019-05-23T06:47:25.783Z,16.12
2019-05-23T06:48:25.773Z,16.16
2019-05-23T06:49:25.760Z,16.16
2019-05-23T06:50:25.746Z,16.09
2019-05-23T06:51:25.745Z,16.06
2019-05-23T06:52:25.728Z,15.89
2019-05-23T06:53:25.715Z,15.72
2019-05-23T06:54:25.703Z,15.72
2019-05-23T06:55:25.693Z,15.81
2019-05-23T06:56:25.692Z,15.92
2019-05-23T06:57:25.684Z,15.84
2019-05-23T06:58:25.733Z,16.03
2019-05-23T06:59:25.660Z,16.16
2019-05-23T07:00:25.645Z,16.16
2019-05-23T07:01:25.635Z,16.27
2019-05-23T07:02:25.622Z,16.33
2019-05-23T07:03:40.430Z,16.23
2019-05-23T07:04:26.611Z,16.23
2019-05-23T07:05:25.584Z,16.34
2019-05-23T07:06:25.589Z,16.42
2019-05-23T07:07:25.562Z,16.58
2019-05-23T07:08:25.593Z,16.55
2019-05-23T07:09:25.558Z,16.31
2019-05-23T07:10:25.540Z,16.23
2019-05-23T07:11:25.520Z,16.26
2019-05-23T07:12:25.502Z,16.22
2019-05-23T07:13:25.516Z,16.37
2019-05-23T07:14:25.480Z,16.50
2019-05-23T07:15:25.467Z,16.62
2019-05-23T07:16:25.474Z,16.74
2019-05-23T07:17:25.443Z,16.59
2019-05-23T07:18:25.434Z,16.49
2019-05-23T07:19:25.552Z,16.23
2019-05-23T07:20:25.409Z,16.23
2019-05-23T07:21:25.409Z,16.15
2019-05-23T07:22:25.397Z,16.27
2019-05-23T07:23:25.388Z,16.23
2019-05-23T07:24:25.367Z,16.33
2019-05-23T07:25:25.370Z,16.35
2019-05-23T07:26:25.377Z,16.37
2019-05-23T07:27:25.372Z,16.53
2019-05-23T07:28:25.322Z,16.62
2019-05-23T07:29:25.310Z,16.67
2019-05-23T07:30:25.325Z,16.85
2019-05-23T07:31:25.295Z,17.06
2019-05-23T07:32:25.273Z,17.15
2019-05-23T07:33:25.262Z,17.14
2019-05-23T07:34:25.252Z,17.15
2019-05-23T07:35:25.251Z,17.20
2019-05-23T07:36:25.272Z,17.14
2019-05-23T07:37:25.225Z,17.11
2019-05-23T07:38:25.209Z,17.07
2019-05-23T07:39:25.270Z,17.17
2019-05-23T07:40:25.186Z,17.35
2019-05-23T07:41:25.182Z,17.30
2019-05-23T07:42:25.172Z,17.53
2019-05-23T07:43:25.154Z,17.43
2019-05-23T07:44:25.142Z,17.40
2019-05-23T07:45:25.129Z,17.53
2019-05-23T07:46:25.121Z,17.73
2019-05-23T07:47:25.118Z,17.78
2019-05-23T07:48:25.095Z,17.81
2019-05-23T07:49:25.092Z,17.92
2019-05-23T07:50:25.080Z,17.87
2019-05-23T07:51:25.060Z,17.87
2019-05-23T07:52:25.058Z,18.07
2019-05-23T07:53:25.064Z,18.02
2019-05-23T07:54:25.039Z,18.15
2019-05-23T07:55:25.014Z,17.99
2019-05-23T07:56:25.029Z,17.92
2019-05-23T07:57:25.006Z,17.89
2019-05-23T07:58:24.982Z,18.09
2019-05-23T07:59:24.976Z,18.12
2019-05-23T08:00:24.979Z,18.33
2019-05-23T08:01:24.950Z,18.42
2019-05-23T08:02:26.349Z,18.57
2019-05-23T08:03:24.926Z,18.80
2019-05-23T08:04:24.919Z,18.72
2019-05-23T08:05:24.904Z,18.80
2019-05-23T08:06:24.899Z,18.82
2019-05-23T08:07:24.891Z,18.84
2019-05-23T08:08:24.872Z,18.83
2019-05-23T08:09:24.865Z,18.73
2019-05-23T08:10:33.540Z,18.62
2019-05-23T08:11:25.838Z,18.79
2019-05-23T08:12:24.835Z,18.72
2019-05-23T08:13:24.882Z,18.62
2019-05-23T08:14:24.805Z,18.50
2019-05-23T08:15:24.799Z,18.65
2019-05-23T08:16:24.785Z,18.54
2019-05-23T08:17:24.831Z,18.44
2019-05-23T08:18:24.766Z,18.42
2019-05-23T08:19:24.752Z,18.42
2019-05-23T08:20:24.741Z,18.57
2019-05-23T08:21:24.732Z,18.58
2019-05-23T08:22:24.725Z,18.72
2019-05-23T08:23:24.707Z,18.83
2019-05-23T08:24:24.702Z,19.14
2019-05-23T08:25:24.687Z,19.35
2019-05-23T08:26:24.714Z,19.43
2019-05-23T08:27:24.676Z,19.60
2019-05-23T08:28:24.649Z,19.63
2019-05-23T08:29:26.610Z,19.91
2019-05-23T08:30:24.631Z,19.93
2019-05-23T08:31:24.618Z,20.10
2019-05-23T08:32:24.607Z,20.21
2019-05-23T08:33:24.616Z,20.46
2019-05-23T08:34:40.059Z,20.42
2019-05-23T08:35:25.596Z,20.56
2019-05-23T08:36:24.598Z,20.69
2019-05-23T08:37:24.559Z,20.74
2019-05-23T08:38:24.551Z,20.65
2019-05-23T08:39:24.529Z,20.71
2019-05-23T08:40:24.523Z,20.69
2019-05-23T08:41:24.507Z,20.42
2019-05-23T08:42:24.495Z,20.35
2019-05-23T08:43:24.493Z,20.18
2019-05-23T08:44:24.475Z,20.20
2019-05-23T08:45:24.471Z,20.25
2019-05-23T08:46:24.453Z,20.25
2019-05-23T08:47:24.445Z,20.21
2019-05-23T08:48:24.439Z,20.23
2019-05-23T08:49:24.422Z,20.10
2019-05-23T08:50:24.407Z,20.06
2019-05-23T08:51:24.398Z,20.10
2019-05-23T08:52:24.385Z,19.84
2019-05-23T08:53:24.382Z,19.90
2019-05-23T08:54:24.362Z,19.86
2019-05-23T08:55:24.352Z,19.95
2019-05-23T08:56:24.346Z,19.91
2019-05-23T08:57:24.330Z,19.94
2019-05-23T08:58:24.328Z,20.06
2019-05-23T08:59:24.310Z,20.21
2019-05-23T09:00:24.295Z,20.25
2019-05-23T09:01:24.292Z,20.25
2019-05-23T09:02:24.273Z,20.42
2019-05-23T09:03:24.276Z,20.35
2019-05-23T09:04:24.258Z,20.30
2019-05-23T09:05:24.304Z,20.31
2019-05-23T09:06:24.239Z,20.38
2019-05-23T09:07:24.220Z,20.38
2019-05-23T09:08:24.219Z,20.41
2019-05-23T09:09:29.606Z,20.43
2019-05-23T09:10:25.185Z,20.49
2019-05-23T09:11:24.180Z,20.56
2019-05-23T09:12:24.241Z,20.58
2019-05-23T09:13:24.169Z,20.66
2019-05-23T09:14:24.153Z,20.77
2019-05-23T09:15:24.135Z,21.05
2019-05-23T09:16:24.123Z,21.26
2019-05-23T09:17:24.111Z,21.45
2019-05-23T09:18:24.109Z,21.66
2019-05-23T09:19:24.091Z,21.88
2019-05-23T09:20:24.091Z,22.16
2019-05-23T09:21:24.066Z,22.34
2019-05-23T09:22:24.068Z,22.50
2019-05-23T09:23:24.130Z,22.50
2019-05-23T09:24:24.035Z,22.67
2019-05-23T09:25:24.028Z,22.77
2019-05-23T09:26:24.022Z,23.01
2019-05-23T09:27:24.005Z,23.08
2019-05-23T09:28:24.005Z,23.32
2019-05-23T09:29:23.998Z,23.26
2019-05-23T09:30:23.977Z,23.24
2019-05-23T09:31:23.962Z,23.35
2019-05-23T09:32:23.955Z,23.38
2019-05-23T09:33:23.972Z,23.47
2019-05-23T09:34:23.939Z,23.62
2019-05-23T09:35:23.920Z,23.58
2019-05-23T09:36:23.911Z,23.64
2019-05-23T09:37:23.944Z,23.61
2019-05-23T09:38:23.895Z,23.67
2019-05-23T09:39:23.892Z,23.80
2019-05-23T09:40:23.874Z,23.68
2019-05-23T09:41:23.857Z,23.70
2019-05-23T09:42:23.846Z,23.71
2019-05-23T09:43:23.844Z,23.80
2019-05-23T09:44:23.834Z,24.01
2019-05-23T09:45:23.830Z,24.04
2019-05-23T09:46:23.809Z,24.20
2019-05-23T09:47:23.804Z,24.44
2019-05-23T09:48:23.785Z,24.59
2019-05-23T09:49:23.788Z,24.85
2019-05-23T09:50:23.767Z,25.09
2019-05-23T09:51:23.755Z,25.15
2019-05-23T09:52:23.747Z,25.27
2019-05-23T09:53:23.739Z,25.15
2019-05-23T09:54:23.731Z,25.07
2019-05-23T09:55:23.719Z,25.13
2019-05-23T09:56:23.703Z,25.05
2019-05-23T09:57:23.692Z,25.02
2019-05-23T09:58:23.681Z,24.88
2019-05-23T09:59:23.739Z,24.95
2019-05-23T10:00:23.663Z,25.10
2019-05-23T10:01:23.651Z,25.17
2019-05-23T10:02:23.643Z,25.32
2019-05-23T10:03:23.720Z,25.52
2019-05-23T10:04:23.709Z,25.67
2019-05-23T10:05:40.680Z,25.59
2019-05-23T10:06:24.602Z,25.53
2019-05-23T10:07:23.591Z,25.22
2019-05-23T10:08:23.582Z,25.02
2019-05-23T10:09:23.595Z,24.67
2019-05-23T10:10:23.567Z,24.31
2019-05-23T10:11:23.550Z,24.10
2019-05-23T10:12:23.540Z,23.85
2019-05-23T10:13:37.900Z,23.80
2019-05-23T10:14:24.551Z,23.83
2019-05-23T10:15:23.509Z,23.92
2019-05-23T10:16:23.506Z,24.05
2019-05-23T10:17:23.513Z,24.29
2019-05-23T10:18:23.478Z,24.53
2019-05-23T10:19:23.491Z,24.85
2019-05-23T10:20:23.467Z,25.17
2019-05-23T10:21:23.449Z,25.43
2019-05-23T10:22:23.446Z,25.87
2019-05-23T10:23:23.430Z,26.08
2019-05-23T10:24:23.421Z,26.05
2019-05-23T10:25:23.419Z,25.82
2019-05-23T10:26:23.415Z,25.69
2019-05-23T10:27:23.390Z,25.89
2019-05-23T10:28:23.384Z,25.91
2019-05-23T10:29:23.371Z,25.77
2019-05-23T10:30:23.371Z,25.47
2019-05-23T10:31:23.346Z,25.42
2019-05-23T10:32:23.337Z,25.06
2019-05-23T10:33:23.334Z,24.75
2019-05-23T10:34:23.347Z,24.71
2019-05-23T10:35:23.317Z,24.69
2019-05-23T10:36:23.297Z,24.75
2019-05-23T10:37:23.286Z,25.09
2019-05-23T10:38:23.275Z,25.43
2019-05-23T10:39:23.265Z,25.75
2019-05-23T10:40:23.268Z,26.12
2019-05-23T10:41:23.247Z,26.32
2019-05-23T10:42:23.248Z,26.69
2019-05-23T10:43:23.243Z,26.94
2019-05-23T10:44:23.221Z,27.14
2019-05-23T10:45:23.222Z,27.47
2019-05-23T10:46:23.196Z,27.82
2019-05-23T10:47:23.193Z,27.82
2019-05-23T10:48:23.177Z,27.77
2019-05-23T10:49:23.175Z,27.50
2019-05-23T10:50:23.167Z,27.06
2019-05-23T10:51:23.147Z,26.72
2019-05-23T10:52:23.138Z,26.58
2019-05-23T10:53:23.128Z,26.69
2019-05-23T10:54:23.121Z,26.87
2019-05-23T10:55:23.118Z,26.98
2019-05-23T10:56:23.105Z,27.19
2019-05-23T10:57:23.086Z,27.35
2019-05-23T10:58:23.074Z,27.62
2019-05-23T10:59:23.121Z,27.89
2019-05-23T11:00:23.071Z,27.82
2019-05-23T11:01:23.139Z,27.46
2019-05-23T11:02:23.036Z,27.01
2019-05-23T11:03:23.026Z,26.58
2019-05-23T11:04:23.018Z,26.36
2019-05-23T11:05:23.012Z,26.25
2019-05-23T11:06:22.997Z,26.27
2019-05-23T11:07:22.985Z,26.28
2019-05-23T11:08:28.208Z,26.37
2019-05-23T11:09:37.360Z,26.42
2019-05-23T11:10:23.963Z,26.59
2019-05-23T11:11:23.111Z,26.49
2019-05-23T11:12:22.931Z,26.61
2019-05-23T11:13:22.931Z,26.76
2019-05-23T11:14:22.923Z,26.86
2019-05-23T11:15:22.915Z,27.09
2019-05-23T11:16:22.892Z,27.28
2019-05-23T11:17:22.880Z,27.59
2019-05-23T11:18:22.874Z,27.79
2019-05-23T11:19:22.864Z,27.92
2019-05-23T11:20:22.851Z,28.13
2019-05-23T11:21:22.852Z,28.22
2019-05-23T11:22:22.829Z,28.40
2019-05-23T11:23:22.822Z,28.07
2019-05-23T11:24:22.828Z,27.76
2019-05-23T11:25:22.818Z,27.13
2019-05-23T11:26:22.802Z,26.40
2019-05-23T11:27:22.779Z,26.27
2019-05-23T11:28:22.779Z,26.09
2019-05-23T11:29:22.771Z,26.17
2019-05-23T11:30:22.748Z,26.21
2019-05-23T11:31:22.750Z,26.27
2019-05-23T11:32:22.738Z,26.39
2019-05-23T11:33:22.723Z,26.20
2019-05-23T11:34:22.727Z,26.21
2019-05-23T11:35:22.709Z,26.22
2019-05-23T11:36:34.610Z,26.49
2019-05-23T11:37:23.710Z,26.69
2019-05-23T11:38:22.673Z,27.05
2019-05-23T11:39:22.746Z,27.31
2019-05-23T11:40:22.651Z,27.59
2019-05-23T11:41:22.680Z,27.59
2019-05-23T11:42:22.639Z,27.57
2019-05-23T11:43:22.616Z,27.51
2019-05-23T11:44:22.607Z,27.70
2019-05-23T11:45:22.597Z,27.70
2019-05-23T11:46:22.595Z,27.77
2019-05-23T11:47:22.576Z,27.95
2019-05-23T11:48:22.567Z,28.07
2019-05-23T11:49:22.558Z,28.04
2019-05-23T11:50:22.552Z,27.91
2019-05-23T11:51:25.608Z,27.98
2019-05-23T11:52:22.528Z,27.91
2019-05-23T11:53:22.521Z,27.92
2019-05-23T11:54:22.507Z,27.77
2019-05-23T11:55:22.497Z,27.77
2019-05-23T11:56:22.509Z,27.76
2019-05-23T11:57:22.486Z,27.61
2019-05-23T11:58:22.465Z,27.59
2019-05-23T11:59:22.455Z,27.53
2019-05-23T12:00:22.450Z,27.43
2019-05-23T12:01:22.444Z,27.41
2019-05-23T12:02:22.424Z,27.51
2019-05-23T12:03:22.418Z,27.51
2019-05-23T12:04:22.408Z,27.50
2019-05-23T12:05:22.397Z,27.61
2019-05-23T12:06:26.033Z,27.77
2019-05-23T12:07:22.397Z,27.76
2019-05-23T12:08:22.363Z,27.95
2019-05-23T12:09:22.353Z,28.03
2019-05-23T12:10:22.883Z,28.07
2019-05-23T12:11:22.382Z,28.19
2019-05-23T12:12:22.331Z,28.28
2019-05-23T12:13:22.312Z,28.41
2019-05-23T12:14:22.302Z,28.25
2019-05-23T12:15:22.366Z,28.01
2019-05-23T12:16:22.278Z,27.94
2019-05-23T12:17:22.281Z,27.94
2019-05-23T12:18:22.264Z,27.82
2019-05-23T12:19:22.256Z,27.43
2019-05-23T12:20:22.246Z,27.24
2019-05-23T12:21:22.230Z,27.14
2019-05-23T12:22:22.236Z,27.16
2019-05-23T12:23:22.208Z,27.02
2019-05-23T12:24:22.201Z,26.95
2019-05-23T12:25:23.541Z,26.83
2019-05-23T12:26:22.178Z,26.79
2019-05-23T12:27:22.182Z,26.74
2019-05-23T12:28:22.158Z,26.92
2019-05-23T12:29:22.149Z,26.96
2019-05-23T12:30:22.139Z,26.99
2019-05-23T12:31:22.126Z,27.06
2019-05-23T12:32:22.128Z,27.13
2019-05-23T12:33:22.107Z,27.29
2019-05-23T12:34:22.102Z,27.20
2019-05-23T12:35:22.085Z,27.33
2019-05-23T12:36:22.092Z,27.31
2019-05-23T12:37:22.077Z,27.33
2019-05-23T12:38:22.055Z,27.29
2019-05-23T12:39:22.040Z,27.36
2019-05-23T12:40:22.035Z,27.38
2019-05-23T12:41:22.035Z,27.39
2019-05-23T12:42:22.020Z,27.42
2019-05-23T12:43:21.999Z,27.48
2019-05-23T12:44:22.001Z,27.57
2019-05-23T12:45:21.977Z,27.59
2019-05-23T12:46:21.971Z,27.26
2019-05-23T12:47:21.971Z,26.86
2019-05-23T12:48:21.956Z,26.08
2019-05-23T12:49:21.985Z,25.82
2019-05-23T12:50:21.928Z,25.46
2019-05-23T12:51:21.924Z,25.31
2019-05-23T12:52:21.920Z,25.35
2019-05-23T12:53:21.927Z,25.49
2019-05-23T12:54:21.883Z,25.53
2019-05-23T12:55:21.880Z,25.65
2019-05-23T12:56:21.864Z,25.79
2019-05-23T12:57:21.881Z,25.98
2019-05-23T12:58:21.856Z,26.06
2019-05-23T12:59:21.829Z,26.24
2019-05-23T13:00:21.841Z,26.50
2019-05-23T13:01:21.815Z,26.55
2019-05-23T13:02:21.811Z,26.67
2019-05-23T13:03:21.787Z,26.83
2019-05-23T13:04:21.779Z,27.13
2019-05-23T13:05:21.768Z,27.38
2019-05-23T13:06:21.757Z,27.69
2019-05-23T13:07:34.933Z,27.95
2019-05-23T13:08:22.747Z,27.89
2019-05-23T13:09:21.727Z,27.47
2019-05-23T13:10:24.759Z,27.47
2019-05-23T13:11:21.704Z,27.84
2019-05-23T13:12:21.695Z,28.11
2019-05-23T13:13:21.710Z,28.50
2019-05-23T13:14:21.670Z,28.62
2019-05-23T13:15:21.663Z,28.78
2019-05-23T13:16:21.651Z,28.81
2019-05-23T13:17:21.641Z,28.81
2019-05-23T13:18:21.638Z,28.70
2019-05-23T13:19:21.638Z,28.65
2019-05-23T13:20:21.606Z,28.62
2019-05-23T13:21:21.596Z,28.63
2019-05-23T13:22:21.600Z,28.84
2019-05-23T13:23:21.758Z,28.88
2019-05-23T13:24:21.569Z,29.11
2019-05-23T13:25:21.553Z,29.25
2019-05-23T13:26:21.545Z,29.35
2019-05-23T13:27:21.534Z,29.52
2019-05-23T13:28:21.540Z,29.55
2019-05-23T13:29:24.326Z,29.89
2019-05-23T13:30:21.502Z,29.96
2019-05-23T13:31:21.494Z,30.12
2019-05-23T13:32:21.490Z,30.29
2019-05-23T13:33:21.481Z,30.21
2019-05-23T13:34:21.466Z,29.77
2019-05-23T13:35:21.447Z,29.71
2019-05-23T13:36:21.464Z,29.72
2019-05-23T13:37:21.425Z,29.90
2019-05-23T13:38:21.430Z,30.12
2019-05-23T13:39:21.413Z,29.87
2019-05-23T13:40:21.399Z,29.79
2019-05-23T13:41:21.384Z,29.65
2019-05-23T13:42:21.374Z,29.75
2019-05-23T13:43:21.420Z,29.99
2019-05-23T13:44:32.621Z,30.38
2019-05-23T13:45:22.343Z,30.33
2019-05-23T13:46:21.332Z,29.90
2019-05-23T13:47:21.324Z,29.40
2019-05-23T13:48:21.335Z,29.31
2019-05-23T13:49:21.300Z,29.34
2019-05-23T13:50:21.294Z,29.55
2019-05-23T13:51:21.285Z,29.55
2019-05-23T13:52:21.269Z,29.71
2019-05-23T13:53:21.256Z,29.59
2019-05-23T13:54:21.308Z,29.44
2019-05-23T13:55:21.236Z,29.53
2019-05-23T13:56:21.316Z,29.23
2019-05-23T13:57:21.219Z,29.28
2019-05-23T13:58:21.203Z,29.47
2019-05-23T13:59:21.208Z,29.65
2019-05-23T14:00:21.183Z,30.08
2019-05-23T14:01:21.182Z,30.11
2019-05-23T14:02:21.187Z,29.87
2019-05-23T14:03:21.167Z,29.63
2019-05-23T14:04:21.161Z,29.41
2019-05-23T14:05:21.146Z,29.35
2019-05-23T14:06:21.126Z,29.43
2019-05-23T14:07:21.186Z,29.60
2019-05-23T14:08:21.134Z,29.89
2019-05-23T14:09:21.099Z,30.24
2019-05-23T14:10:21.087Z,30.64
2019-05-23T14:11:21.074Z,30.98
2019-05-23T14:12:22.060Z,31.31
2019-05-23T14:13:21.715Z,31.31
2019-05-23T14:14:21.070Z,31.40
2019-05-23T14:15:21.033Z,31.50
2019-05-23T14:16:21.028Z,31.70
2019-05-23T14:17:21.017Z,31.72
2019-05-23T14:18:21.005Z,31.88
2019-05-23T14:19:21.003Z,31.91
2019-05-23T14:20:20.982Z,31.61
2019-05-23T14:21:21.068Z,30.80
2019-05-23T14:22:20.969Z,29.96
2019-05-23T14:23:20.962Z,29.20
2019-05-23T14:24:20.970Z,28.91
2019-05-23T14:25:20.968Z,28.96
2019-05-23T14:26:20.919Z,29.03
2019-05-23T14:27:20.912Z,29.01
2019-05-23T14:28:20.901Z,29.07
2019-05-23T14:29:20.895Z,29.37
2019-05-23T14:30:20.879Z,29.55
2019-05-23T14:31:20.871Z,29.84
2019-05-23T14:32:20.951Z,29.97
2019-05-23T14:33:20.847Z,30.38
2019-05-23T14:34:20.848Z,30.59
2019-05-23T14:35:20.826Z,31.02
2019-05-23T14:36:20.817Z,31.38
2019-05-23T14:37:20.807Z,31.80
2019-05-23T14:38:30.432Z,32.10
2019-05-23T14:39:21.838Z,32.51
2019-05-23T14:40:20.777Z,32.81
2019-05-23T14:41:20.795Z,32.85
2019-05-23T14:42:20.756Z,32.70
2019-05-23T14:43:20.750Z,32.42
2019-05-23T14:44:20.750Z,32.15
2019-05-23T14:45:20.738Z,31.99
2019-05-23T14:46:20.715Z,31.76
2019-05-23T14:47:20.747Z,31.31
2019-05-23T14:48:20.700Z,31.05
2019-05-23T14:49:20.694Z,30.86
2019-05-23T14:50:20.704Z,30.91
2019-05-23T14:51:20.828Z,30.67
2019-05-23T14:52:20.657Z,30.81
2019-05-23T14:53:20.668Z,31.05
2019-05-23T14:54:20.641Z,31.26
2019-05-23T14:55:20.635Z,31.54
2019-05-23T14:56:20.619Z,31.88
2019-05-23T14:57:20.617Z,32.14
2019-05-23T14:58:20.597Z,32.42
2019-05-23T14:59:20.593Z,32.84
2019-05-23T15:00:20.575Z,33.03
2019-05-23T15:01:20.565Z,33.29
2019-05-23T15:02:20.559Z,33.41
2019-05-23T15:03:20.547Z,33.49
2019-05-23T15:04:20.551Z,33.52
2019-05-23T15:05:20.526Z,33.46
2019-05-23T15:06:20.516Z,33.63
2019-05-23T15:07:20.504Z,33.58
2019-05-23T15:08:20.514Z,33.63
2019-05-23T15:09:21.586Z,33.71
2019-05-23T15:10:20.473Z,33.27
2019-05-23T15:11:20.465Z,33.31
2019-05-23T15:12:20.533Z,32.85
2019-05-23T15:13:20.444Z,32.47
2019-05-23T15:14:20.444Z,32.32
2019-05-23T15:15:20.423Z,32.05
2019-05-23T15:16:20.414Z,31.91
2019-05-23T15:17:20.408Z,31.33
2019-05-23T15:18:20.399Z,30.89
2019-05-23T15:19:39.988Z,30.45
2019-05-23T15:20:21.374Z,29.92
2019-05-23T15:21:20.362Z,29.50
2019-05-23T15:22:20.367Z,29.20
2019-05-23T15:23:20.344Z,28.90
2019-05-23T15:24:20.389Z,28.62
2019-05-23T15:25:20.331Z,28.29
2019-05-23T15:26:23.434Z,28.06
2019-05-23T15:27:20.305Z,27.92
2019-05-23T15:28:20.292Z,27.67
2019-05-23T15:29:20.290Z,27.58
2019-05-23T15:30:20.281Z,27.39
2019-05-23T15:31:20.259Z,27.33
2019-05-23T15:32:20.253Z,27.19
2019-05-23T15:33:20.242Z,27.06
2019-05-23T15:34:20.233Z,26.86
2019-05-23T15:35:20.228Z,26.74
2019-05-23T15:36:20.207Z,26.67
2019-05-23T15:37:20.197Z,26.59
2019-05-23T15:38:20.186Z,26.54
2019-05-23T15:39:20.179Z,26.50
2019-05-23T15:40:20.175Z,26.28
2019-05-23T15:41:20.157Z,26.27
2019-05-23T15:42:20.144Z,26.12
2019-05-23T15:43:20.139Z,26.06
2019-05-23T15:44:26.844Z,26.01
2019-05-23T15:45:21.121Z,25.87
2019-05-23T15:46:20.105Z,25.82
2019-05-23T15:47:20.098Z,25.71
2019-05-23T15:48:20.104Z,25.72
2019-05-23T15:49:20.084Z,25.72
2019-05-23T15:50:20.071Z,25.71
2019-05-23T15:51:20.054Z,25.75
2019-05-23T15:52:20.040Z,25.84
2019-05-23T15:53:20.055Z,25.80
2019-05-23T15:54:20.018Z,25.80
2019-05-23T15:55:20.033Z,25.77
2019-05-23T15:56:27.582Z,25.65
2019-05-23T15:57:20.983Z,25.54
2019-05-23T15:58:22.233Z,25.42
2019-05-23T15:59:20.043Z,25.37
2019-05-23T16:00:19.953Z,25.27
2019-05-23T16:01:19.957Z,25.27
2019-05-23T16:02:19.932Z,25.27
2019-05-23T16:03:19.925Z,25.27
2019-05-23T16:04:19.911Z,25.22
2019-05-23T16:05:19.915Z,25.24
2019-05-23T16:06:19.901Z,25.09
2019-05-23T16:07:19.880Z,25.06
2019-05-23T16:08:19.868Z,25.05
2019-05-23T16:09:29.718Z,25.01
2019-05-23T16:10:20.843Z,24.92
2019-05-23T16:11:19.905Z,25.00
2019-05-23T16:12:19.827Z,24.83
2019-05-23T16:13:19.814Z,24.77
2019-05-23T16:14:19.812Z,24.85
2019-05-23T16:15:19.806Z,24.82
2019-05-23T16:16:19.818Z,24.92
2019-05-23T16:17:19.771Z,24.77
2019-05-23T16:18:19.780Z,24.63
2019-05-23T16:19:19.752Z,24.67
2019-05-23T16:20:19.736Z,24.67
2019-05-23T16:21:19.744Z,24.57
2019-05-23T16:22:19.733Z,24.47
2019-05-23T16:23:19.703Z,24.45
2019-05-23T16:24:19.694Z,24.39
2019-05-23T16:25:19.722Z,24.42
2019-05-23T16:26:19.693Z,24.37
2019-05-23T16:27:19.675Z,24.17
2019-05-23T16:28:19.686Z,24.23
2019-05-23T16:29:19.640Z,24.19
2019-05-23T16:30:19.633Z,24.22
2019-05-23T16:31:19.662Z,24.14
2019-05-23T16:32:19.611Z,24.13
2019-05-23T16:33:19.600Z,24.12
2019-05-23T16:34:19.585Z,24.04
2019-05-23T16:35:19.579Z,24.08
2019-05-23T16:36:19.567Z,24.01
2019-05-23T16:37:19.564Z,24.01
2019-05-23T16:38:19.544Z,24.04
2019-05-23T16:39:19.540Z,24.08
2019-05-23T16:40:19.519Z,24.00
2019-05-23T16:41:19.521Z,23.97
2019-05-23T16:42:19.513Z,23.97
2019-05-23T16:43:19.494Z,24.01
2019-05-23T16:44:19.486Z,23.97
2019-05-23T16:45:19.466Z,23.98
2019-05-23T16:46:19.463Z,23.95
2019-05-23T16:47:19.464Z,23.97
2019-05-23T16:48:19.433Z,23.95
2019-05-23T16:49:19.422Z,23.86
2019-05-23T16:50:19.428Z,23.86
2019-05-23T16:51:19.418Z,23.80
2019-05-23T16:52:19.399Z,23.77
2019-05-23T16:53:19.377Z,23.89
2019-05-23T16:54:19.368Z,23.77
2019-05-23T16:55:19.379Z,23.83
2019-05-23T16:56:19.414Z,23.87
2019-05-23T16:57:19.346Z,23.83
2019-05-23T16:58:19.329Z,23.80
2019-05-23T16:59:19.312Z,23.71
2019-05-23T17:00:19.981Z,23.80
2019-05-23T17:01:24.227Z,23.70
2019-05-23T17:02:20.295Z,23.72
2019-05-23T17:03:19.276Z,23.64
2019-05-23T17:04:19.272Z,23.65
2019-05-23T17:05:19.249Z,23.67
2019-05-23T17:06:19.237Z,23.55
2019-05-23T17:07:19.286Z,23.64
2019-05-23T17:08:19.215Z,23.61
2019-05-23T17:09:19.217Z,23.60
2019-05-23T17:10:19.199Z,23.67
2019-05-23T17:11:19.183Z,23.65
2019-05-23T17:12:19.191Z,23.70
2019-05-23T17:13:19.164Z,23.70
2019-05-23T17:14:19.155Z,23.53
2019-05-23T17:15:19.141Z,23.61
2019-05-23T17:16:19.130Z,23.64
2019-05-23T17:17:38.141Z,23.52
2019-05-23T17:18:20.108Z,23.55
2019-05-23T17:19:19.102Z,23.58
2019-05-23T17:20:20.433Z,23.55
2019-05-23T17:21:19.077Z,23.55
2019-05-23T17:22:19.066Z,23.39
2019-05-23T17:23:19.083Z,23.45
2019-05-23T17:24:19.049Z,23.47
2019-05-23T17:25:19.154Z,23.35
2019-05-23T17:26:19.023Z,23.43
2019-05-23T17:27:19.011Z,23.42
2019-05-23T17:28:19.008Z,23.39
2019-05-23T17:29:18.995Z,23.39
2019-05-23T17:30:18.999Z,23.34
2019-05-23T17:31:18.968Z,23.34
2019-05-23T17:32:18.966Z,23.31
2019-05-23T17:33:18.961Z,23.23
2019-05-23T17:34:18.934Z,23.23
2019-05-23T17:35:18.922Z,23.26
2019-05-23T17:36:18.916Z,23.20
2019-05-23T17:37:18.911Z,23.20
2019-05-23T17:38:18.928Z,23.11
2019-05-23T17:39:18.885Z,23.12
2019-05-23T17:40:24.882Z,23.09
2019-05-23T17:41:19.865Z,23.11
2019-05-23T17:42:18.848Z,23.09
2019-05-23T17:43:18.855Z,23.04
2019-05-23T17:44:18.824Z,23.12
2019-05-23T17:45:18.816Z,23.01
2019-05-23T17:46:18.987Z,22.93
2019-05-23T17:47:18.794Z,22.93
2019-05-23T17:48:18.796Z,22.94
2019-05-23T17:49:18.793Z,22.93
2019-05-23T17:50:18.760Z,22.90
2019-05-23T17:51:18.748Z,22.84
2019-05-23T17:52:18.766Z,22.87
2019-05-23T17:53:18.734Z,22.84
2019-05-23T17:54:18.763Z,22.80
2019-05-23T17:55:18.704Z,22.72
2019-05-23T17:56:18.717Z,22.65
2019-05-23T17:57:18.687Z,22.71
2019-05-23T17:58:18.684Z,22.62
2019-05-23T17:59:18.695Z,22.57
2019-05-23T18:00:18.657Z,22.62
2019-05-23T18:01:18.688Z,22.47
2019-05-23T18:02:18.792Z,22.52
2019-05-23T18:03:18.631Z,22.46
2019-05-23T18:04:18.609Z,22.56
2019-05-23T18:05:18.592Z,22.46
2019-05-23T18:06:18.622Z,22.44
2019-05-23T18:07:18.598Z,22.43
2019-05-23T18:08:18.560Z,22.43
2019-05-23T18:09:18.559Z,22.46
2019-05-23T18:10:18.578Z,22.39
2019-05-23T18:11:18.566Z,22.47
2019-05-23T18:12:18.519Z,22.49
2019-05-23T18:13:18.525Z,22.41
2019-05-23T18:14:18.559Z,22.35
2019-05-23T18:15:18.485Z,22.31
2019-05-23T18:16:18.473Z,22.35
2019-05-23T18:17:18.461Z,22.19
2019-05-23T18:18:18.461Z,22.28
2019-05-23T18:19:18.458Z,22.19
2019-05-23T18:20:18.431Z,22.16
2019-05-23T18:21:18.434Z,22.09
2019-05-23T18:22:18.422Z,22.07
2019-05-23T18:23:18.396Z,22.06
2019-05-23T18:24:18.394Z,22.16
2019-05-23T18:25:18.376Z,22.10
2019-05-23T18:26:18.412Z,22.01
2019-05-23T18:27:18.350Z,22.07
2019-05-23T18:28:18.339Z,22.06
2019-05-23T18:29:18.351Z,22.04
2019-05-23T18:30:18.322Z,21.99
2019-05-23T18:31:18.319Z,21.95
2019-05-23T18:32:18.294Z,22.02
2019-05-23T18:33:18.896Z,21.82
2019-05-23T18:34:18.278Z,21.92
2019-05-23T18:35:18.266Z,21.83
2019-05-23T18:36:18.247Z,21.83
2019-05-23T18:37:18.259Z,21.90
2019-05-23T18:38:18.225Z,21.78
2019-05-23T18:39:18.233Z,21.74
2019-05-23T18:40:18.225Z,21.72
2019-05-23T18:41:18.232Z,21.72
2019-05-23T18:42:18.183Z,21.64
2019-05-23T18:43:18.173Z,21.60
2019-05-23T18:44:18.206Z,21.66